Crater Lake, OR

4:31 PM PST on December 27, 2014 (GMT -0800)
Sexton Summit | Change Station
CLOSE
Current Station
Airport
Location: Sexton Summit,
Elevation: 3839 ft
Nearby Weather Stations
Active Advisory: Winter Weather Advisory

Elev 3839 ft 42.60 °N, 123.36 °W | Updated 35 minutes ago

Mostly Cloudy
Mostly Cloudy
36 °F
Feels Like 33 °F
N
4
Wind Variable Wind from West

Today
High -- | Low -- °F
--% Chance of Precip.
Yesterday
High -- | Low -- °F
Precip. -- in
7:38 AM 4:40 PM
Waxing Crescent, 41% visible
Pressure 30.33 in
Visibility 10.0 miles
Clouds Overcast 3500 ft
Windchill 33 °F
Dew Point 23 °F
Humidity 59%
Rainfall 0.00 in
Snow Depth Not available.
UV 0 out of 12
Pollen 1.90 out of 12
Air Quality Not available.
Flu Activity Not available.
METAR KSXT 272356Z AUTO 26003KT 10SM OVC035 02/M05 A3025 RMK AO2 SLP269 T00221050 10033 21011 53003

More Conditions Fewer Conditions

Pressure 30.33 in
Visibility 10.0 miles
Clouds Overcast 3500 ft
Windchill 33 °F
Dew Point 23 °F
Humidity 59%
Rainfall 0.00 in
Snow Depth Not available.
UV 0 out of 12
Pollen 1.90 out of 12
Air Quality Not available.
Flu Activity Not available.
METAR KSXT 272356Z AUTO 26003KT 10SM OVC035 02/M05 A3025 RMK AO2 SLP269 T00221050 10033 21011 53003

More Conditions Fewer Conditions

10-Day Weather Forecast

Almanac

Astronomy

Dec. 27, 2014 Rise Set
Actual Time
Civil Twilight
Nautical Twilight
Astronomical Twilight
Moon
Length of Visible Light
Length of Day
Tomorrow will be .
, % of the Moon is Illuminated

Today's Extremes

State Highs State Lows

Community

WunderPhotos

Upload Photos

1,781,116 photos uploaded!

WunderBlogs® & News

Nearby

Air Quality

  Air Quality AQ Index Pollutant
Not available.

Snow Depth

Station Depth Elevation

Earthquake Activity

City Distance Mag. Time & Date
Minimum magnitude displayed is 2.5.

Coastal Water Temperatures

Place Temperature

Nearby Weather Stations